Flight Track Log - Related Links

Times and Time Zones

All times are in EDT time to prevent confusion due to time zone crossing. See the UAL495 flight status page for this flight to view local times or setup timezone preferences in your user account.


Time Position Orientation Groundspeed Altitude Reporting Facility
EDT Latitude Longitude Course Direction KTS MPH feet Rate Location/Type
Sun 12:28:03 PM 39.9167 -104.6833 90° East 202 232 7,000  Level Denver TRACON
Sun 12:29:09 PM 39.9500 -104.5833 66° East 256 295 9,100 1,714 Climbing Denver TRACON
Sun 12:30:00 PM 39.8667 -104.1903 90° East  Level FlightAware Approximate
Sun 12:30:09 PM 39.9500 -104.4833 90° East 307 353 10,600  Level Denver TRACON
Sun 12:31:00 PM 39.8667 -104.0311 90° East  Level FlightAware Approximate
Sun 12:31:58 PM 39.9314 -104.2533 96° East 380 437 14,000  Level Denver Center
Sun 12:32:00 PM 39.8667 -103.8719 90° East  Level FlightAware Approximate
Sun 12:33:00 PM 39.8833 -103.7161 90° East  Level FlightAware Approximate
Sun 12:33:00 PM 39.9192 -104.0972 96° East 408 470 16,400  Level Denver Center
Sun 12:34:02 PM 39.9047 -103.9464 97° East 422 486 18,200 1,887 Climbing Denver Center
Sun 12:35:04 PM 39.8886 -103.7906 98° East 435 501 20,300 1,839 Climbing Denver Center
Sun 12:36:06 PM 39.8936 -103.6364 88° East 427 491 22,000 1,597 Climbing Denver Center
Sun 12:37:08 PM 39.9136 -103.4678 81° East 461 531 23,600 1,597 Climbing Denver Center
Sun 12:38:10 PM 39.9383 -103.2672 81° East 477 549 25,300 1,548 Climbing Denver Center
Sun 12:39:12 PM 39.9572 -103.0889 82° East 490 564 26,800 1,355 Climbing Denver Center
Sun 12:40:14 PM 39.9769 -102.9067 82° East 504 580 28,100 1,296 Climbing Denver Center
Sun 12:41:17 PM 39.9967 -102.7239 82° East 505 581 29,500 1,632 Climbing Denver Center
Sun 12:42:19 PM 40.0181 -102.5194 82° East 509 586 31,500 1,548 Climbing Denver Center
Sun 12:43:21 PM 40.0361 -102.3472 82° East 503 579 32,700 726 Climbing Denver Center
Sun 12:44:23 PM 40.0536 -102.1739 82° East 505 581 33,000 145 Climbing Denver Center
Sun 12:45:25 PM 40.0742 -101.9717 82° East 505 581 33,000  Level Denver Center
Sun 12:46:27 PM 40.0917 -101.7997 82° East 501 577 33,000  Level Denver Center
Sun 12:47:29 PM 40.1100 -101.5986 83° East 501 577 33,000  Level Denver Center
Sun 12:48:31 PM 40.1267 -101.4275 83° East 500 575 33,000  Level Denver Center
Sun 12:49:33 PM 40.1456 -101.2289 83° East 497 572 33,000  Level Denver Center
Sun 12:50:35 PM 40.1611 -101.0586 83° East 495 570 33,000  Level Denver Center
Sun 12:51:37 PM 40.1800 -100.8583 83° East 498 573 33,000  Level Denver Center
Sun 12:52:39 PM 40.1950 -100.6886 83° East 495 570 33,000  Level Denver Center
Sun 12:53:41 PM 40.2072 -100.4872 85° East 499 574 33,000  Level Denver Center
Sun 12:54:43 PM 40.2100 -100.3142 89° East 501 577 33,000 48 Level Denver Center
Sun 12:55:45 PM 40.2150 -100.1122 88° East 500 575 33,100 726 Climbing Denver Center
Sun 12:56:47 PM 40.2183 -99.9389 89° East 500 575 34,500 919 Climbing Denver Center
Sun 12:57:49 PM 40.2214 -99.7622 89° East 498 573 35,000 242 Climbing Denver Center
Sun 12:58:51 PM 40.2256 -99.5461 88° East 497 572 35,000  Level Denver Center
Sun 12:59:55 PM 40.2289 -99.3642 89° East 501 577 35,000  Level Denver Center
Sun 01:00:57 PM 40.2317 -99.1808 89° East 505 581 35,000  Level Denver Center
Sun 01:01:59 PM 40.2339 -98.9983 89° East 504 580 35,000  Level Denver Center
Sun 01:02:44 PM 40.2358 -98.8539 89° East 503 579 35,000 792 Level Minneapolis Center
Sun 01:03:45 PM 40.2375 -98.6733 89° East 500 575 36,400 976 Climbing Minneapolis Center
Sun 01:04:47 PM 40.2389 -98.4950 89° East 495 570 37,000 290 Climbing Minneapolis Center
Sun 01:05:49 PM 40.2406 -98.3167 89° East 493 567 37,000  Level Minneapolis Center
Sun 01:06:50 PM 40.2411 -98.1011 90° East 494 568 37,000  Level Minneapolis Center
Sun 01:07:52 PM 40.2419 -97.9214 90° East 496 571 37,000  Level Minneapolis Center
Sun 01:08:54 PM 40.2419 -97.7406 90° East 497 572 37,000  Level Minneapolis Center
Sun 01:09:56 PM 40.2422 -97.5592 90° East 499 574 37,000  Level Minneapolis Center
Sun 01:10:57 PM 40.2417 -97.3797 90° East 496 571 37,000  Level Minneapolis Center
Sun 01:11:59 PM 40.2422 -97.1833 90° East 494 568 37,000  Level Minneapolis Center
Sun 01:13:01 PM 40.2417 -97.0053 90° East 492 566 37,000  Level Minneapolis Center
Sun 01:14:02 PM 40.2406 -96.8278 90° East 491 565 37,000  Level Minneapolis Center
Sun 01:15:04 PM 40.2397 -96.6494 90° East 491 565 37,000  Level Minneapolis Center
Sun 01:16:06 PM 40.2383 -96.4706 91° East 493 567 37,000  Level Minneapolis Center
Sun 01:17:07 PM 40.2347 -96.2567 91° East 493 567 37,000  Level Minneapolis Center
Sun 01:18:09 PM 40.2325 -96.0781 91° East 494 568 37,000  Level Minneapolis Center
Sun 01:19:11 PM 40.2314 -95.9008 90° East 491 565 37,000  Level Minneapolis Center
Sun 01:20:12 PM 40.2275 -95.7239 92° East 491 565 37,000  Level Minneapolis Center
Sun 01:21:14 PM 40.2253 -95.5489 91° East 487 560 37,000  Level Minneapolis Center
Sun 01:22:16 PM 40.2217 -95.3736 91° East 486 559 37,000  Level Minneapolis Center
Sun 01:23:18 PM 40.2192 -95.1967 91° East 486 559 37,000  Level Minneapolis Center
Sun 01:24:19 PM 40.2139 -94.9864 92° East 485 558 37,000  Level Minneapolis Center
Sun 01:25:21 PM 40.2092 -94.8100 92° East 486 559 37,000  Level Minneapolis Center
Sun 01:26:23 PM 40.2061 -94.6333 91° East 486 559 37,000  Level Minneapolis Center
Sun 01:27:24 PM 40.2014 -94.4600 92° East 490 564 37,000  Level Minneapolis Center
Sun 01:28:26 PM 40.1972 -94.2861 92° East 485 558 37,000  Level Minneapolis Center
Sun 01:28:44 PM 40.1939 -94.2311 95° East 482 555 37,000  Level Kansas City Center
Sun 01:29:46 PM 40.1864 -94.0417 93° East 486 559 37,000  Level Kansas City Center
Sun 01:30:46 PM 40.1800 -93.8678 93° East 486 559 37,000  Level Kansas City Center
Sun 01:31:50 PM 40.1744 -93.6953 92° East 480 552 37,000  Level Kansas City Center
Sun 01:32:51 PM 40.1672 -93.5222 93° East 479 551 37,000  Level Kansas City Center
Sun 01:33:55 PM 40.1617 -93.3147 92° East 480 552 37,000  Level Kansas City Center
Sun 01:34:56 PM 40.1558 -93.1422 92° East 481 554 37,000  Level Kansas City Center
Sun 01:35:57 PM 40.1503 -92.9753 92° East 478 550 37,000  Level Kansas City Center
Sun 01:37:01 PM 40.1422 -92.7792 93° East 480 552 37,000  Level Kansas City Center
Sun 01:38:01 PM 40.1350 -92.6114 93° East 482 555 37,000  Level Kansas City Center
Sun 01:39:04 PM 40.1447 -92.4178 86° East 482 555 37,000  Level Kansas City Center
Sun 01:40:05 PM 40.1536 -92.2550 86° East 481 554 37,000  Level Kansas City Center
Sun 01:41:08 PM 40.1617 -92.0822 86° East 483 556 37,000  Level Kansas City Center
Sun 01:42:10 PM 40.1697 -91.9100 86° East 481 554 37,000  Level Kansas City Center
Sun 01:43:11 PM 40.1783 -91.7019 87° East 482 555 37,000  Level Kansas City Center
Sun 01:44:15 PM 40.1878 -91.5286 86° East 482 555 37,000  Level Kansas City Center
Sun 01:45:16 PM 40.1942 -91.3564 87° East 481 554 37,000  Level Kansas City Center
Sun 01:46:19 PM 40.2011 -91.1828 87° East 481 554 37,000  Level Kansas City Center
Sun 01:47:19 PM 40.2083 -91.0111 87° East 478 550 37,000  Level Kansas City Center
Sun 01:48:21 PM 40.2167 -90.8081 87° East 480 552 37,000  Level Kansas City Center
Sun 01:48:57 PM 40.2206 -90.7042 87° East 480 552 37,000  Level Chicago Center
Sun 01:49:59 PM 40.2269 -90.5303 87° East 480 552 37,000  Level Chicago Center
Sun 01:51:01 PM 40.2322 -90.3569 88° East 479 551 37,000  Level Chicago Center
Sun 01:52:03 PM 40.2375 -90.1828 88° East 481 554 37,000  Level Chicago Center
Sun 01:53:05 PM 40.2442 -89.9739 88° East 483 556 37,000  Level Chicago Center
Sun 01:54:07 PM 40.2486 -89.7983 88° East 485 558 37,000  Level Chicago Center
Sun 01:55:08 PM 40.2542 -89.6244 88° East 484 557 37,000  Level Chicago Center
Sun 01:56:10 PM 40.2589 -89.4489 88° East 486 559 37,000  Level Chicago Center
Sun 01:57:12 PM 40.2639 -89.2747 88° East 483 556 37,000  Level Chicago Center
Sun 01:58:14 PM 40.2669 -89.0997 89° East 484 557 37,000  Level Chicago Center
Sun 01:59:16 PM 40.2717 -88.8908 88° East 481 554 37,000  Level Chicago Center
Sun 02:00:19 PM 40.2753 -88.7164 88° East 482 555 37,000  Level Chicago Center
Sun 02:01:21 PM 40.2797 -88.5442 88° East 478 550 37,000  Level Chicago Center
Sun 02:02:22 PM 40.2831 -88.3586 89° East 476 548 37,000  Level Chicago Center
Sun 02:03:24 PM 40.2858 -88.1850 89° East 479 551 37,000  Level Chicago Center
Sun 02:04:26 PM 40.2878 -88.0133 89° East 477 549 37,000  Level Chicago Center
Sun 02:05:28 PM 40.2914 -87.8431 88° East 474 545 37,000  Level Chicago Center
Sun 02:06:11 PM 40.2917 -87.7189 90° East 476 548 37,000  Level Indianapolis Center
Sun 02:07:13 PM 40.2931 -87.5114 89° East 476 548 37,000  Level Indianapolis Center
Sun 02:07:32 PM 40.2942 -87.4664 88° East 476 548 37,000  Level Chicago Center
Sun 02:08:34 PM 40.2914 -87.2922 91° East 482 555 37,000  Level Chicago Center
Sun 02:09:35 PM 40.2903 -87.1189 90° East 482 555 37,000  Level Chicago Center
Sun 02:10:37 PM 40.2883 -86.9478 91° East 477 549 37,000  Level Chicago Center
Sun 02:11:39 PM 40.2847 -86.7447 91° East 478 550 37,000  Level Chicago Center
Sun 02:12:41 PM 40.2833 -86.5697 91° East 481 554 37,000  Level Chicago Center
Sun 02:13:43 PM 40.2800 -86.3958 91° East 481 554 37,000  Level Chicago Center
Sun 02:14:45 PM 40.2764 -86.2214 91° East 483 556 37,000  Level Chicago Center
Sun 02:15:46 PM 40.2733 -86.0428 91° East 484 557 37,000  Level Chicago Center
Sun 02:16:48 PM 40.2694 -85.8711 92° East 484 557 37,000  Level Chicago Center
Sun 02:17:50 PM 40.2636 -85.6547 92° East 494 568 37,000  Level Chicago Center
Sun 02:18:52 PM 40.2594 -85.4842 92° East 488 562 37,000  Level Chicago Center
Sun 02:19:35 PM 40.2564 -85.3453 92° East 485 558 37,000  Level Indianapolis Center
Sun 02:20:37 PM 40.2522 -85.1678 92° East 485 558 37,000  Level Indianapolis Center
Sun 02:21:38 PM 40.2467 -84.9889 92° East 487 560 37,000  Level Indianapolis Center
Sun 02:22:40 PM 40.2403 -84.8106 93° East 487 560 37,000  Level Indianapolis Center
Sun 02:23:42 PM 40.2353 -84.6317 92° East 487 560 37,000  Level Indianapolis Center
Sun 02:24:44 PM 40.2303 -84.4528 92° East 487 560 37,000  Level Indianapolis Center
Sun 02:25:46 PM 40.2231 -84.2736 93° East 488 562 37,000  Level Indianapolis Center
Sun 02:26:48 PM 40.2164 -84.0917 93° East 493 567 37,000  Level Indianapolis Center
Sun 02:27:50 PM 40.2097 -83.9122 93° East 489 563 37,000  Level Indianapolis Center
Sun 02:28:52 PM 40.2011 -83.7003 93° East 492 566 37,000  Level Indianapolis Center
Sun 02:29:54 PM 40.1933 -83.5183 93° East 493 567 37,000  Level Indianapolis Center
Sun 02:30:56 PM 40.1858 -83.3364 93° East 492 566 37,000  Level Indianapolis Center
Sun 02:31:58 PM 40.1669 -83.1572 98° East 491 565 37,000  Level Indianapolis Center
Sun 02:33:00 PM 40.1361 -82.9811 103° East 490 564 37,000  Level Indianapolis Center
Sun 02:34:02 PM 40.1083 -82.8047 102° East 489 563 37,000  Level Indianapolis Center
Sun 02:35:04 PM 40.0803 -82.6281 102° East 491 565 37,000  Level Indianapolis Center
Sun 02:36:06 PM 40.0511 -82.4542 102° East 488 562 37,000  Level Indianapolis Center
Sun 02:37:08 PM 40.0186 -82.2786 104° East 492 566 37,000  Level Indianapolis Center
Sun 02:38:10 PM 39.9881 -82.1056 103° East 486 559 37,000  Level Indianapolis Center
Sun 02:39:12 PM 39.9503 -81.9025 104° East 490 564 37,000  Level Indianapolis Center
Sun 02:40:14 PM 39.9194 -81.7283 103° East 489 563 37,000  Level Indianapolis Center
Sun 02:41:16 PM 39.8878 -81.5533 103° East 491 565 37,000  Level Indianapolis Center
Sun 02:41:52 PM 39.8678 -81.4622 106° East 487 560 37,000  Level Cleveland Center
Sun 02:42:52 PM 39.8378 -81.2697 101° East 487 560 37,000 -200 Level Cleveland Center
Sun 02:43:52 PM 39.8056 -81.0964 104° East 487 560 36,600 -700 Descending Cleveland Center
Sun 02:44:52 PM 39.7728 -80.9233 104° East 487 560 35,600 -800 Descending Cleveland Center
Sun 02:45:52 PM 39.7419 -80.7614 104° East 482 555 35,000 -300 Descending Cleveland Center
Sun 02:46:52 PM 39.7086 -80.5911 104° East 477 549 35,000 -250 Level Cleveland Center
Sun 02:47:52 PM 39.6772 -80.4239 104° East 472 543 34,500 -1,913 Descending Cleveland Center
Sun 02:49:32 PM 39.6214 -80.1506 105° East 487 560 29,900 -2,977 Descending Indianapolis Center
Sun 02:50:05 PM 39.6042 -80.0492 102° East 480 552 27,900 -1,871 Descending Washington Center
Sun 02:51:05 PM 39.5708 -79.8775 104° East 480 552 27,000 -450 Descending Washington Center
Sun 02:52:05 PM 39.5372 -79.7086 104° East 480 552 27,000  Level Washington Center
Sun 02:53:05 PM 39.5011 -79.5372 105° East 480 552 27,000 -300 Level Washington Center
Sun 02:54:05 PM 39.4728 -79.3797 103° East 485 558 26,400 -1,700 Descending Washington Center
Sun 02:55:05 PM 39.4369 -79.1925 104° East 496 571 23,600 -2,850 Descending Washington Center
Sun 02:56:05 PM 39.4106 -79.0244 101° East 484 557 20,700 -2,600 Descending Washington Center
Sun 02:57:05 PM 39.3794 -78.8700 105° East 470 541 18,400 -2,350 Descending Washington Center
Sun 02:58:05 PM 39.3522 -78.7183 103° East 452 520 16,000 -2,400 Descending Washington Center
Sun 02:59:05 PM 39.3267 -78.5725 103° East 431 496 13,600 -1,500 Descending Washington Center
Sun 03:00:05 PM 39.3028 -78.4400 103° East 402 463 13,000 -450 Descending Washington Center
Sun 03:01:05 PM 39.2678 -78.3342 113° Southeast 359 413 12,700 -1,050 Descending Washington Center
Sun 03:02:05 PM 39.2219 -78.2439 123° Southeast 317 365 10,900 -1,500 Descending Washington Center
Sun 03:03:05 PM 39.1758 -78.1567 124° Southeast 302 348 9,700 -1,250 Descending Washington Center
Sun 03:04:05 PM 39.1317 -78.0722 124° Southeast 296 341 8,400 -1,400 Descending Washington Center
Sun 03:05:05 PM 39.0875 -77.9878 124° Southeast 291 335 6,900 -1,200 Descending Washington Center
Sun 03:06:05 PM 39.0453 -77.9114 125° Southeast 286 329 6,000 -450 Descending Washington Center
Sun 03:07:05 PM 39.0072 -77.8328 122° Southeast 266 306 6,000  Level Washington Center
Sun 03:08:05 PM 38.9689 -77.7594 124° Southeast 272 313 6,000  Level Washington Center
Sun 03:09:05 PM 38.9561 -77.6603 99° East 258 297 6,000  Level Washington Center
Sun 03:09:57 PM 38.9167 -77.6000 130° Southeast 242 278 6,000 -268 Level Potomac TRACON
Sun 03:10:57 PM 38.8500 -77.5667 159° South 236 272 5,500 -645 Descending Potomac TRACON
Sun 03:11:58 PM 38.8000 -77.5667 180° South 228 262 4,700 -787 Descending Potomac TRACON

Login

Don't have an account? Register now (free) for customized features, flight alerts, and more!